sensor_id;sensor_type;location;lat;lon;timestamp;temperature;humidity
10010;DHT22;5044;48.652;9.250;2023-03-14T05:44:47;7.70;99.90
10010;DHT22;5044;48.652;9.250;2023-03-14T05:47:14;7.70;99.90
10010;DHT22;5044;48.652;9.250;2023-03-14T05:49:40;7.70;99.90
10010;DHT22;5044;48.652;9.250;2023-03-14T05:52:07;7.70;99.90
10010;DHT22;5044;48.652;9.250;2023-03-14T05:54:34;7.70;99.90
10010;DHT22;5044;48.652;9.250;2023-03-14T05:57:01;7.70;99.90
10010;DHT22;5044;48.652;9.250;2023-03-14T05:59:28;7.70;99.90
10010;DHT22;5044;48.652;9.250;2023-03-14T06:01:56;7.60;99.90
10010;DHT22;5044;48.652;9.250;2023-03-14T06:04:23;7.60;99.90
10010;DHT22;5044;48.652;9.250;2023-03-14T06:06:50;7.60;99.90
10010;DHT22;5044;48.652;9.250;2023-03-14T06:09:17;7.60;99.90
10010;DHT22;5044;48.652;9.250;2023-03-14T06:11:45;7.80;99.90
10010;DHT22;5044;48.652;9.250;2023-03-14T06:14:12;7.60;99.90
10010;DHT22;5044;48.652;9.250;2023-03-14T06:16:39;7.50;99.90
10010;DHT22;5044;48.652;9.250;2023-03-14T06:19:08;7.60;99.90
10010;DHT22;5044;48.652;9.250;2023-03-14T06:21:35;7.50;99.90
10010;DHT22;5044;48.652;9.250;2023-03-14T06:24:02;7.50;99.90
10010;DHT22;5044;48.652;9.250;2023-03-14T06:26:29;7.50;99.90
10010;DHT22;5044;48.652;9.250;2023-03-14T06:28:55;7.50;99.90
10010;DHT22;5044;48.652;9.250;2023-03-14T06:31:30;7.50;99.90
10010;DHT22;5044;48.652;9.250;2023-03-14T06:34:50;7.50;99.90
10010;DHT22;5044;48.652;9.250;2023-03-14T06:37:24;7.50;99.90
10010;DHT22;5044;48.652;9.250;2023-03-14T06:40:19;7.60;99.90
10010;DHT22;5044;48.652;9.250;2023-03-14T06:43:08;7.50;99.90
10010;DHT22;5044;48.652;9.250;2023-03-14T06:45:41;7.50;99.90
10010;DHT22;5044;48.652;9.250;2023-03-14T06:48:21;7.40;99.90
10010;DHT22;5044;48.652;9.250;2023-03-14T06:50:58;7.40;99.90
10010;DHT22;5044;48.652;9.250;2023-03-14T06:53:44;7.50;99.90
10010;DHT22;5044;48.652;9.250;2023-03-14T06:56:29;7.50;99.90
10010;DHT22;5044;48.652;9.250;2023-03-14T06:59:00;7.50;99.90
10010;DHT22;5044;48.652;9.250;2023-03-14T07:01:35;7.50;99.90
10010;DHT22;5044;48.652;9.250;2023-03-14T07:04:10;7.50;99.90
10010;DHT22;5044;48.652;9.250;2023-03-14T07:09:33;7.60;99.90
10010;DHT22;5044;48.652;9.250;2023-03-14T07:12:01;7.70;99.90
10010;DHT22;5044;48.652;9.250;2023-03-14T07:14:33;7.80;99.90
10010;DHT22;5044;48.652;9.250;2023-03-14T07:17:17;7.80;99.90
10010;DHT22;5044;48.652;9.250;2023-03-14T07:19:53;7.90;99.90
10010;DHT22;5044;48.652;9.250;2023-03-14T07:22:50;8.00;99.90
10010;DHT22;5044;48.652;9.250;2023-03-14T07:25:48;8.00;99.90
10010;DHT22;5044;48.652;9.250;2023-03-14T07:28:16;8.00;99.90
10010;DHT22;5044;48.652;9.250;2023-03-14T07:30:43;8.10;99.90
10010;DHT22;5044;48.652;9.250;2023-03-14T07:33:09;8.10;99.90
10010;DHT22;5044;48.652;9.250;2023-03-14T07:35:37;8.40;99.90
10010;DHT22;5044;48.652;9.250;2023-03-14T07:38:05;8.60;99.90
10010;DHT22;5044;48.652;9.250;2023-03-14T07:40:32;8.80;99.90
10010;DHT22;5044;48.652;9.250;2023-03-14T07:42:59;8.90;99.90
10010;DHT22;5044;48.652;9.250;2023-03-14T07:45:26;9.10;99.90
10010;DHT22;5044;48.652;9.250;2023-03-14T07:50:23;9.40;99.90
10010;DHT22;5044;48.652;9.250;2023-03-14T07:52:50;9.40;99.90
10010;DHT22;5044;48.652;9.250;2023-03-14T07:55:18;9.50;99.90
10010;DHT22;5044;48.652;9.250;2023-03-14T07:57:45;9.60;99.90
10010;DHT22;5044;48.652;9.250;2023-03-14T08:00:13;9.60;99.90
10010;DHT22;5044;48.652;9.250;2023-03-14T08:02:40;9.70;99.90
10010;DHT22;5044;48.652;9.250;2023-03-14T08:05:08;9.80;99.90
10010;DHT22;5044;48.652;9.250;2023-03-14T08:07:35;9.80;99.90
10010;DHT22;5044;48.652;9.250;2023-03-14T08:10:03;10.10;99.90
10010;DHT22;5044;48.652;9.250;2023-03-14T08:12:32;9.90;99.90
10010;DHT22;5044;48.652;9.250;2023-03-14T08:14:59;10.00;99.90
10010;DHT22;5044;48.652;9.250;2023-03-14T08:17:26;10.00;99.90
10010;DHT22;5044;48.652;9.250;2023-03-14T08:19:53;10.00;99.90
10010;DHT22;5044;48.652;9.250;2023-03-14T08:22:19;10.10;99.90
10010;DHT22;5044;48.652;9.250;2023-03-14T08:24:46;10.20;99.90
10010;DHT22;5044;48.652;9.250;2023-03-14T08:27:13;10.20;99.90
10010;DHT22;5044;48.652;9.250;2023-03-14T08:29:42;10.20;99.90
10010;DHT22;5044;48.652;9.250;2023-03-14T08:32:09;10.30;99.90
10010;DHT22;5044;48.652;9.250;2023-03-14T08:34:36;10.30;99.90
10010;DHT22;5044;48.652;9.250;2023-03-14T08:37:03;10.40;99.90
10010;DHT22;5044;48.652;9.250;2023-03-14T08:39:30;10.60;99.90
10010;DHT22;5044;48.652;9.250;2023-03-14T08:41:56;10.70;99.90
10010;DHT22;5044;48.652;9.250;2023-03-14T08:44:23;10.90;99.90
10010;DHT22;5044;48.652;9.250;2023-03-14T08:46:52;11.00;99.90
10010;DHT22;5044;48.652;9.250;2023-03-14T08:49:19;11.10;99.90
10010;DHT22;5044;48.652;9.250;2023-03-14T08:51:46;11.40;99.90
10010;DHT22;5044;48.652;9.250;2023-03-14T08:54:12;11.40;99.90
10010;DHT22;5044;48.652;9.250;2023-03-14T08:56:39;11.50;99.90
10010;DHT22;5044;48.652;9.250;2023-03-14T08:59:06;11.30;99.90
10010;DHT22;5044;48.652;9.250;2023-03-14T09:01:35;11.60;99.90
10010;DHT22;5044;48.652;9.250;2023-03-14T09:04:04;11.40;99.90
10010;DHT22;5044;48.652;9.250;2023-03-14T09:06:32;11.40;98.20
10010;DHT22;5044;48.652;9.250;2023-03-14T09:08:58;11.40;97.20
10010;DHT22;5044;48.652;9.250;2023-03-14T09:11:25;11.20;98.00
10010;DHT22;5044;48.652;9.250;2023-03-14T09:13:52;11.10;99.70
10010;DHT22;5044;48.652;9.250;2023-03-14T09:16:19;11.00;99.90
10010;DHT22;5044;48.652;9.250;2023-03-14T09:18:46;10.90;99.90
10010;DHT22;5044;48.652;9.250;2023-03-14T09:21:14;11.10;99.90
10010;DHT22;5044;48.652;9.250;2023-03-14T09:23:41;10.90;99.90
10010;DHT22;5044;48.652;9.250;2023-03-14T09:26:08;11.00;99.90
10010;DHT22;5044;48.652;9.250;2023-03-14T09:28:35;11.40;99.90
10010;DHT22;5044;48.652;9.250;2023-03-14T09:31:06;11.50;99.00
10010;DHT22;5044;48.652;9.250;2023-03-14T09:33:33;11.70;99.90
10010;DHT22;5044;48.652;9.250;2023-03-14T09:36:00;11.70;97.50
10010;DHT22;5044;48.652;9.250;2023-03-14T09:38:29;11.70;99.90
10010;DHT22;5044;48.652;9.250;2023-03-14T09:40:59;11.70;99.20
10010;DHT22;5044;48.652;9.250;2023-03-14T09:43:29;11.80;99.60
10010;DHT22;5044;48.652;9.250;2023-03-14T09:45:57;11.80;99.90
10010;DHT22;5044;48.652;9.250;2023-03-14T09:48:29;11.80;99.90
10010;DHT22;5044;48.652;9.250;2023-03-14T09:50:58;11.80;99.90
10010;DHT22;5044;48.652;9.250;2023-03-14T09:53:36;11.80;99.90
10010;DHT22;5044;48.652;9.250;2023-03-14T09:56:04;11.90;99.90
10010;DHT22;5044;48.652;9.250;2023-03-14T09:58:35;11.60;99.90
10010;DHT22;5044;48.652;9.250;2023-03-14T10:01:02;11.70;99.90
10010;DHT22;5044;48.652;9.250;2023-03-14T10:03:32;11.70;99.90
10010;DHT22;5044;48.652;9.250;2023-03-14T10:05:59;11.60;99.90
10010;DHT22;5044;48.652;9.250;2023-03-14T10:08:26;11.60;99.90
10010;DHT22;5044;48.652;9.250;2023-03-14T10:10:55;11.60;99.90
10010;DHT22;5044;48.652;9.250;2023-03-14T10:13:23;11.70;99.90
10010;DHT22;5044;48.652;9.250;2023-03-14T10:15:53;11.70;99.90
10010;DHT22;5044;48.652;9.250;2023-03-14T10:18:22;11.60;99.90
10010;DHT22;5044;48.652;9.250;2023-03-14T10:20:52;11.70;99.90
10010;DHT22;5044;48.652;9.250;2023-03-14T10:23:29;11.70;99.90
10010;DHT22;5044;48.652;9.250;2023-03-14T10:26:05;11.80;99.90
10010;DHT22;5044;48.652;9.250;2023-03-14T10:28:34;11.90;99.90
10010;DHT22;5044;48.652;9.250;2023-03-14T10:31:04;12.10;99.90
10010;DHT22;5044;48.652;9.250;2023-03-14T10:33:33;12.20;99.90
10010;DHT22;5044;48.652;9.250;2023-03-14T10:36:02;12.30;98.80
10010;DHT22;5044;48.652;9.250;2023-03-14T10:38:30;12.30;98.90
10010;DHT22;5044;48.652;9.250;2023-03-14T10:40:57;12.30;98.20
10010;DHT22;5044;48.652;9.250;2023-03-14T10:43:30;12.40;98.90
10010;DHT22;5044;48.652;9.250;2023-03-14T10:45:59;12.50;97.70
10010;DHT22;5044;48.652;9.250;2023-03-14T10:48:32;12.30;96.60
10010;DHT22;5044;48.652;9.250;2023-03-14T10:51:04;12.10;95.40
10010;DHT22;5044;48.652;9.250;2023-03-14T10:53:41;12.20;94.90
10010;DHT22;5044;48.652;9.250;2023-03-14T10:56:11;12.30;96.20
10010;DHT22;5044;48.652;9.250;2023-03-14T10:58:42;12.40;93.40
10010;DHT22;5044;48.652;9.250;2023-03-14T11:01:22;12.40;94.50
10010;DHT22;5044;48.652;9.250;2023-03-14T11:03:56;12.00;93.60
10010;DHT22;5044;48.652;9.250;2023-03-14T11:06:29;11.90;94.70
10010;DHT22;5044;48.652;9.250;2023-03-14T11:09:06;11.90;93.00
10010;DHT22;5044;48.652;9.250;2023-03-14T11:11:39;12.00;95.10
10010;DHT22;5044;48.652;9.250;2023-03-14T11:14:18;11.90;94.50
10010;DHT22;5044;48.652;9.250;2023-03-14T11:16:54;12.00;96.00
10010;DHT22;5044;48.652;9.250;2023-03-14T11:19:36;12.20;96.10
10010;DHT22;5044;48.652;9.250;2023-03-14T11:22:14;12.00;95.40
10010;DHT22;5044;48.652;9.250;2023-03-14T11:25:05;11.80;96.90
10010;DHT22;5044;48.652;9.250;2023-03-14T11:27:41;11.70;98.30
10010;DHT22;5044;48.652;9.250;2023-03-14T11:30:18;11.60;98.60
10010;DHT22;5044;48.652;9.250;2023-03-14T11:32:49;11.60;99.00
10010;DHT22;5044;48.652;9.250;2023-03-14T11:35:21;11.50;98.10
10010;DHT22;5044;48.652;9.250;2023-03-14T11:37:52;11.60;99.90
10010;DHT22;5044;48.652;9.250;2023-03-14T11:40:22;11.60;98.80
10010;DHT22;5044;48.652;9.250;2023-03-14T11:42:58;11.40;99.90
10010;DHT22;5044;48.652;9.250;2023-03-14T11:45:30;11.60;99.90
10010;DHT22;5044;48.652;9.250;2023-03-14T11:48:13;11.50;99.90
10010;DHT22;5044;48.652;9.250;2023-03-14T11:50:42;11.40;99.90
10010;DHT22;5044;48.652;9.250;2023-03-14T11:53:13;11.10;99.90
10010;DHT22;5044;48.652;9.250;2023-03-14T11:55:42;11.20;99.90
10010;DHT22;5044;48.652;9.250;2023-03-14T11:58:14;11.40;99.90
10010;DHT22;5044;48.652;9.250;2023-03-14T12:00:44;11.20;99.90
10010;DHT22;5044;48.652;9.250;2023-03-14T12:03:19;11.10;99.90
10010;DHT22;5044;48.652;9.250;2023-03-14T12:05:55;11.20;99.90
10010;DHT22;5044;48.652;9.250;2023-03-14T12:08:39;11.30;99.90
10010;DHT22;5044;48.652;9.250;2023-03-14T12:11:13;11.10;99.90
10010;DHT22;5044;48.652;9.250;2023-03-14T12:13:46;11.10;99.90
10010;DHT22;5044;48.652;9.250;2023-03-14T12:16:33;10.90;99.90
10010;DHT22;5044;48.652;9.250;2023-03-14T12:19:21;10.70;99.90
10010;DHT22;5044;48.652;9.250;2023-03-14T12:21:53;10.70;99.90
10010;DHT22;5044;48.652;9.250;2023-03-14T12:24:24;10.70;99.90
10010;DHT22;5044;48.652;9.250;2023-03-14T12:26:53;10.50;99.90
10010;DHT22;5044;48.652;9.250;2023-03-14T12:29:21;10.60;99.90
10010;DHT22;5044;48.652;9.250;2023-03-14T12:32:07;10.70;99.90
10010;DHT22;5044;48.652;9.250;2023-03-14T12:34:34;10.60;99.90
10010;DHT22;5044;48.652;9.250;2023-03-14T12:37:14;10.70;99.90
10010;DHT22;5044;48.652;9.250;2023-03-14T12:39:47;10.70;99.90
10010;DHT22;5044;48.652;9.250;2023-03-14T12:42:22;10.50;99.90
10010;DHT22;5044;48.652;9.250;2023-03-14T12:44:50;10.60;99.90
10010;DHT22;5044;48.652;9.250;2023-03-14T12:50:32;10.10;98.80
10010;DHT22;5044;48.652;9.250;2023-03-14T12:56:22;10.20;92.90
10010;DHT22;5044;48.652;9.250;2023-03-14T12:59:02;10.50;87.40
10010;DHT22;5044;48.652;9.250;2023-03-14T13:01:33;10.20;72.00
10010;DHT22;5044;48.652;9.250;2023-03-14T13:04:06;10.50;80.70
10010;DHT22;5044;48.652;9.250;2023-03-14T13:07:02;10.50;68.00
10010;DHT22;5044;48.652;9.250;2023-03-14T13:09:36;10.20;66.00
10010;DHT22;5044;48.652;9.250;2023-03-14T13:12:44;10.30;66.90
10010;DHT22;5044;48.652;9.250;2023-03-14T13:15:19;10.30;68.20
10010;DHT22;5044;48.652;9.250;2023-03-14T13:17:53;10.30;69.80
10010;DHT22;5044;48.652;9.250;2023-03-14T13:20:30;10.30;72.80
10010;DHT22;5044;48.652;9.250;2023-03-14T13:23:02;10.20;66.30
10010;DHT22;5044;48.652;9.250;2023-03-14T13:25:41;9.90;63.60
10010;DHT22;5044;48.652;9.250;2023-03-14T13:28:10;9.50;63.00
10010;DHT22;5044;48.652;9.250;2023-03-14T13:30:40;9.40;64.60
10010;DHT22;5044;48.652;9.250;2023-03-14T13:33:14;9.50;66.30
10010;DHT22;5044;48.652;9.250;2023-03-14T13:35:46;9.20;65.20
10010;DHT22;5044;48.652;9.250;2023-03-14T13:38:17;8.90;67.40
10010;DHT22;5044;48.652;9.250;2023-03-14T13:40:49;8.90;71.80
10010;DHT22;5044;48.652;9.250;2023-03-14T13:43:24;9.20;70.40
10010;DHT22;5044;48.652;9.250;2023-03-14T13:45:54;9.30;67.50
10010;DHT22;5044;48.652;9.250;2023-03-14T13:48:25;9.10;66.50
10010;DHT22;5044;48.652;9.250;2023-03-14T13:50:55;8.90;67.30
10010;DHT22;5044;48.652;9.250;2023-03-14T13:53:24;9.10;68.10
10010;DHT22;5044;48.652;9.250;2023-03-14T13:55:51;8.90;67.30
10010;DHT22;5044;48.652;9.250;2023-03-14T13:58:26;8.90;68.20
10010;DHT22;5044;48.652;9.250;2023-03-14T14:01:03;9.00;66.90
10010;DHT22;5044;48.652;9.250;2023-03-14T14:03:38;9.00;68.40
10010;DHT22;5044;48.652;9.250;2023-03-14T14:06:09;9.00;69.70
10010;DHT22;5044;48.652;9.250;2023-03-14T14:08:49;9.10;70.40
10010;DHT22;5044;48.652;9.250;2023-03-14T14:11:40;8.90;68.70
10010;DHT22;5044;48.652;9.250;2023-03-14T14:14:13;9.20;71.50
10010;DHT22;5044;48.652;9.250;2023-03-14T14:16:45;9.00;70.50
10010;DHT22;5044;48.652;9.250;2023-03-14T14:19:15;9.00;68.50
10010;DHT22;5044;48.652;9.250;2023-03-14T14:21:44;8.70;61.50
10010;DHT22;5044;48.652;9.250;2023-03-14T14:24:15;8.60;59.60
10010;DHT22;5044;48.652;9.250;2023-03-14T14:26:47;8.60;60.90
10010;DHT22;5044;48.652;9.250;2023-03-14T14:29:26;8.60;59.40
10010;DHT22;5044;48.652;9.250;2023-03-14T14:32:00;8.40;58.60
10010;DHT22;5044;48.652;9.250;2023-03-14T14:34:28;8.30;57.20
10010;DHT22;5044;48.652;9.250;2023-03-14T14:36:55;8.30;59.10
10010;DHT22;5044;48.652;9.250;2023-03-14T14:39:24;8.40;59.30
10010;DHT22;5044;48.652;9.250;2023-03-14T14:41:54;8.70;60.30
10010;DHT22;5044;48.652;9.250;2023-03-14T14:44:30;8.80;60.40
10010;DHT22;5044;48.652;9.250;2023-03-14T14:46:58;8.60;60.10
10010;DHT22;5044;48.652;9.250;2023-03-14T14:49:30;8.60;59.50
10010;DHT22;5044;48.652;9.250;2023-03-14T14:52:01;8.40;60.50
10010;DHT22;5044;48.652;9.250;2023-03-14T14:54:37;8.30;59.80
10010;DHT22;5044;48.652;9.250;2023-03-14T14:57:12;8.30;60.50
10010;DHT22;5044;48.652;9.250;2023-03-14T14:59:55;8.40;60.50
10010;DHT22;5044;48.652;9.250;2023-03-14T15:02:30;8.30;58.90
10010;DHT22;5044;48.652;9.250;2023-03-14T15:05:01;8.40;59.70
10010;DHT22;5044;48.652;9.250;2023-03-14T15:07:29;8.40;59.10
10010;DHT22;5044;48.652;9.250;2023-03-14T15:09:56;8.40;59.10
10010;DHT22;5044;48.652;9.250;2023-03-14T15:12:25;8.40;58.70
10010;DHT22;5044;48.652;9.250;2023-03-14T15:14:53;8.60;61.10
10010;DHT22;5044;48.652;9.250;2023-03-14T15:17:22;8.60;61.00
10010;DHT22;5044;48.652;9.250;2023-03-14T15:19:54;8.70;59.60
10010;DHT22;5044;48.652;9.250;2023-03-14T15:22:23;8.70;59.10
10010;DHT22;5044;48.652;9.250;2023-03-14T15:24:50;9.00;60.60
10010;DHT22;5044;48.652;9.250;2023-03-14T15:27:20;9.10;58.80
10010;DHT22;5044;48.652;9.250;2023-03-14T15:29:48;9.10;59.00
10010;DHT22;5044;48.652;9.250;2023-03-14T15:32:20;9.00;58.20
10010;DHT22;5044;48.652;9.250;2023-03-14T15:34:49;8.70;57.60
10010;DHT22;5044;48.652;9.250;2023-03-14T15:37:19;8.60;57.70
10010;DHT22;5044;48.652;9.250;2023-03-14T15:39:53;8.40;58.00
10010;DHT22;5044;48.652;9.250;2023-03-14T15:42:23;8.30;58.60
10010;DHT22;5044;48.652;9.250;2023-03-14T15:44:50;8.20;57.80
10010;DHT22;5044;48.652;9.250;2023-03-14T15:47:20;8.30;59.50
10010;DHT22;5044;48.652;9.250;2023-03-14T15:49:49;8.20;60.50
10010;DHT22;5044;48.652;9.250;2023-03-14T15:52:16;8.20;60.10
10010;DHT22;5044;48.652;9.250;2023-03-14T15:54:43;8.20;61.40
10010;DHT22;5044;48.652;9.250;2023-03-14T15:57:12;8.20;61.50
10010;DHT22;5044;48.652;9.250;2023-03-14T15:59:39;8.40;63.10
10010;DHT22;5044;48.652;9.250;2023-03-14T16:02:09;8.20;63.40
10010;DHT22;5044;48.652;9.250;2023-03-14T16:04:37;8.10;63.50
10010;DHT22;5044;48.652;9.250;2023-03-14T16:07:04;8.10;63.90
10010;DHT22;5044;48.652;9.250;2023-03-14T16:09:31;8.20;62.90
10010;DHT22;5044;48.652;9.250;2023-03-14T16:11:58;8.10;63.20
10010;DHT22;5044;48.652;9.250;2023-03-14T16:14:25;8.20;64.60
10010;DHT22;5044;48.652;9.250;2023-03-14T16:16:54;8.20;62.90
10010;DHT22;5044;48.652;9.250;2023-03-14T16:19:24;8.20;64.90
10010;DHT22;5044;48.652;9.250;2023-03-14T16:22:01;8.10;65.90
10010;DHT22;5044;48.652;9.250;2023-03-14T16:24:32;8.20;65.90
10010;DHT22;5044;48.652;9.250;2023-03-14T16:26:59;8.20;65.50
10010;DHT22;5044;48.652;9.250;2023-03-14T16:29:43;8.20;64.40
10010;DHT22;5044;48.652;9.250;2023-03-14T16:32:15;8.10;66.90
10010;DHT22;5044;48.652;9.250;2023-03-14T16:34:44;8.10;66.60
10010;DHT22;5044;48.652;9.250;2023-03-14T16:37:22;8.20;69.60
10010;DHT22;5044;48.652;9.250;2023-03-14T16:39:52;8.20;65.80
10010;DHT22;5044;48.652;9.250;2023-03-14T16:42:25;8.10;66.60
10010;DHT22;5044;48.652;9.250;2023-03-14T16:44:52;8.00;66.00
10010;DHT22;5044;48.652;9.250;2023-03-14T16:47:19;7.90;67.00
10010;DHT22;5044;48.652;9.250;2023-03-14T16:49:46;7.90;67.60
10010;DHT22;5044;48.652;9.250;2023-03-14T16:52:13;7.90;71.00
10010;DHT22;5044;48.652;9.250;2023-03-14T16:54:41;7.90;67.80
10010;DHT22;5044;48.652;9.250;2023-03-14T16:57:08;7.80;69.10
10010;DHT22;5044;48.652;9.250;2023-03-14T16:59:35;7.80;71.40
10010;DHT22;5044;48.652;9.250;2023-03-14T17:02:02;7.80;70.90
10010;DHT22;5044;48.652;9.250;2023-03-14T17:04:29;7.80;70.70
10010;DHT22;5044;48.652;9.250;2023-03-14T17:06:56;7.90;73.40
10010;DHT22;5044;48.652;9.250;2023-03-14T17:09:23;7.70;73.10
10010;DHT22;5044;48.652;9.250;2023-03-14T17:11:51;7.70;76.90
10010;DHT22;5044;48.652;9.250;2023-03-14T17:14:20;7.60;75.20
10010;DHT22;5044;48.652;9.250;2023-03-14T17:16:47;7.60;75.00
10010;DHT22;5044;48.652;9.250;2023-03-14T17:19:15;7.50;79.20
10010;DHT22;5044;48.652;9.250;2023-03-14T17:21:42;7.50;79.60
10010;DHT22;5044;48.652;9.250;2023-03-14T17:24:09;7.20;81.70
10010;DHT22;5044;48.652;9.250;2023-03-14T17:26:36;7.20;85.80
10010;DHT22;5044;48.652;9.250;2023-03-14T17:29:04;7.00;87.10
10010;DHT22;5044;48.652;9.250;2023-03-14T17:31:31;6.90;90.00
10010;DHT22;5044;48.652;9.250;2023-03-14T17:33:58;7.20;91.10
10010;DHT22;5044;48.652;9.250;2023-03-14T17:36:25;6.80;91.80
10010;DHT22;5044;48.652;9.250;2023-03-14T17:38:55;6.70;93.00
10010;DHT22;5044;48.652;9.250;2023-03-14T17:41:22;6.60;93.80
10010;DHT22;5044;48.652;9.250;2023-03-14T17:43:49;6.70;94.10
10010;DHT22;5044;48.652;9.250;2023-03-14T17:46:17;6.60;95.10
10010;DHT22;5044;48.652;9.250;2023-03-14T17:48:46;6.60;96.00
10010;DHT22;5044;48.652;9.250;2023-03-14T17:51:14;6.90;97.50
10010;DHT22;5044;48.652;9.250;2023-03-14T17:53:42;6.80;98.80
10010;DHT22;5044;48.652;9.250;2023-03-14T17:56:09;6.30;99.90
10010;DHT22;5044;48.652;9.250;2023-03-14T17:58:37;6.30;99.60
10010;DHT22;5044;48.652;9.250;2023-03-14T18:01:08;6.70;99.90
10010;DHT22;5044;48.652;9.250;2023-03-14T18:03:37;6.40;99.90
10010;DHT22;5044;48.652;9.250;2023-03-14T18:06:04;6.10;99.90
10010;DHT22;5044;48.652;9.250;2023-03-14T18:08:32;6.10;99.90
10010;DHT22;5044;48.652;9.250;2023-03-14T18:10:59;6.00;99.90
10010;DHT22;5044;48.652;9.250;2023-03-14T18:13:26;5.90;99.90
10010;DHT22;5044;48.652;9.250;2023-03-14T18:15:52;5.80;99.90
10010;DHT22;5044;48.652;9.250;2023-03-14T18:18:19;5.80;99.90
10010;DHT22;5044;48.652;9.250;2023-03-14T18:20:52;5.80;99.90
10010;DHT22;5044;48.652;9.250;2023-03-14T18:23:19;5.80;99.90
10010;DHT22;5044;48.652;9.250;2023-03-14T18:25:47;5.80;99.90
10010;DHT22;5044;48.652;9.250;2023-03-14T18:28:17;5.60;99.90
10010;DHT22;5044;48.652;9.250;2023-03-14T18:30:46;5.50;99.90
10010;DHT22;5044;48.652;9.250;2023-03-14T18:33:18;5.20;99.90
10010;DHT22;5044;48.652;9.250;2023-03-14T18:35:47;5.10;99.90
10010;DHT22;5044;48.652;9.250;2023-03-14T18:38:17;5.10;99.90
10010;DHT22;5044;48.652;9.250;2023-03-14T18:40:44;5.00;99.90
10010;DHT22;5044;48.652;9.250;2023-03-14T18:43:13;4.90;99.90
10010;DHT22;5044;48.652;9.250;2023-03-14T18:45:42;4.90;99.90
10010;DHT22;5044;48.652;9.250;2023-03-14T18:48:09;4.90;99.90
10010;DHT22;5044;48.652;9.250;2023-03-14T18:50:37;5.50;99.90
10010;DHT22;5044;48.652;9.250;2023-03-14T18:53:04;4.80;99.90
10010;DHT22;5044;48.652;9.250;2023-03-14T18:55:35;4.80;99.90
10010;DHT22;5044;48.652;9.250;2023-03-14T18:58:02;4.70;99.90
10010;DHT22;5044;48.652;9.250;2023-03-14T19:00:29;5.10;99.90
10010;DHT22;5044;48.652;9.250;2023-03-14T19:02:56;4.60;99.90
10010;DHT22;5044;48.652;9.250;2023-03-14T19:05:24;4.80;99.90
10010;DHT22;5044;48.652;9.250;2023-03-14T19:07:50;4.60;99.90
10010;DHT22;5044;48.652;9.250;2023-03-14T19:10:17;4.50;99.90
10010;DHT22;5044;48.652;9.250;2023-03-14T19:12:46;4.50;99.90
10010;DHT22;5044;48.652;9.250;2023-03-14T19:15:13;4.50;99.90
10010;DHT22;5044;48.652;9.250;2023-03-14T19:17:41;4.50;99.90
10010;DHT22;5044;48.652;9.250;2023-03-14T19:20:09;4.40;99.90
10010;DHT22;5044;48.652;9.250;2023-03-14T19:22:36;4.40;99.90
10010;DHT22;5044;48.652;9.250;2023-03-14T19:25:04;4.70;99.90
10010;DHT22;5044;48.652;9.250;2023-03-14T19:27:52;4.40;99.90
10010;DHT22;5044;48.652;9.250;2023-03-14T19:30:28;4.40;99.90
10010;DHT22;5044;48.652;9.250;2023-03-14T19:33:02;4.40;99.90
10010;DHT22;5044;48.652;9.250;2023-03-14T19:35:29;4.40;99.90
10010;DHT22;5044;48.652;9.250;2023-03-14T19:37:57;4.40;99.90
10010;DHT22;5044;48.652;9.250;2023-03-14T19:40:28;4.40;99.90
10010;DHT22;5044;48.652;9.250;2023-03-14T19:43:16;4.40;99.90
10010;DHT22;5044;48.652;9.250;2023-03-14T19:45:43;4.40;99.90
10010;DHT22;5044;48.652;9.250;2023-03-14T19:48:12;4.50;99.90
10010;DHT22;5044;48.652;9.250;2023-03-14T19:50:39;4.50;99.90
10010;DHT22;5044;48.652;9.250;2023-03-14T19:53:10;4.40;99.90
10010;DHT22;5044;48.652;9.250;2023-03-14T19:55:48;4.80;99.90
10010;DHT22;5044;48.652;9.250;2023-03-14T19:58:16;4.30;99.90
10010;DHT22;5044;48.652;9.250;2023-03-14T20:00:47;4.30;99.90
10010;DHT22;5044;48.652;9.250;2023-03-14T20:03:14;4.30;99.90
10010;DHT22;5044;48.652;9.250;2023-03-14T20:05:42;4.20;99.90
10010;DHT22;5044;48.652;9.250;2023-03-14T20:08:10;4.20;99.90
10010;DHT22;5044;48.652;9.250;2023-03-14T20:10:39;3.90;99.90
10010;DHT22;5044;48.652;9.250;2023-03-14T20:13:09;4.10;99.90
10010;DHT22;5044;48.652;9.250;2023-03-14T20:15:38;4.20;99.90
10010;DHT22;5044;48.652;9.250;2023-03-14T20:18:06;4.20;99.90
10010;DHT22;5044;48.652;9.250;2023-03-14T20:20:44;4.50;99.90
10010;DHT22;5044;48.652;9.250;2023-03-14T20:23:15;4.20;99.90
10010;DHT22;5044;48.652;9.250;2023-03-14T20:25:42;4.20;99.90
10010;DHT22;5044;48.652;9.250;2023-03-14T20:28:11;4.20;99.90
10010;DHT22;5044;48.652;9.250;2023-03-14T20:30:43;4.00;99.90
10010;DHT22;5044;48.652;9.250;2023-03-14T20:33:12;4.10;99.90
10010;DHT22;5044;48.652;9.250;2023-03-14T20:35:41;4.20;99.90
10010;DHT22;5044;48.652;9.250;2023-03-14T20:38:07;4.50;99.90
10010;DHT22;5044;48.652;9.250;2023-03-14T20:40:35;4.20;99.90
10010;DHT22;5044;48.652;9.250;2023-03-14T20:43:02;4.20;99.90
10010;DHT22;5044;48.652;9.250;2023-03-14T20:45:28;4.30;99.90
10010;DHT22;5044;48.652;9.250;2023-03-14T20:47:58;4.20;99.90
10010;DHT22;5044;48.652;9.250;2023-03-14T20:50:25;4.20;99.90
10010;DHT22;5044;48.652;9.250;2023-03-14T20:52:52;3.50;99.90
10010;DHT22;5044;48.652;9.250;2023-03-14T20:55:19;4.10;99.90
10010;DHT22;5044;48.652;9.250;2023-03-14T20:57:54;4.20;99.90
10010;DHT22;5044;48.652;9.250;2023-03-14T21:00:29;4.20;99.90
10010;DHT22;5044;48.652;9.250;2023-03-14T21:03:00;4.20;99.90
10010;DHT22;5044;48.652;9.250;2023-03-14T21:05:28;4.30;99.90
10010;DHT22;5044;48.652;9.250;2023-03-14T21:07:57;4.70;99.90
10010;DHT22;5044;48.652;9.250;2023-03-14T21:10:24;4.30;99.90
10010;DHT22;5044;48.652;9.250;2023-03-14T21:12:51;4.30;99.90
10010;DHT22;5044;48.652;9.250;2023-03-14T21:15:19;4.40;99.90
10010;DHT22;5044;48.652;9.250;2023-03-14T21:17:46;4.50;99.90
10010;DHT22;5044;48.652;9.250;2023-03-14T21:20:15;4.10;99.90
10010;DHT22;5044;48.652;9.250;2023-03-14T21:22:42;4.10;99.90
10010;DHT22;5044;48.652;9.250;2023-03-14T21:25:09;4.10;99.90
10010;DHT22;5044;48.652;9.250;2023-03-14T21:27:37;4.00;99.90
10010;DHT22;5044;48.652;9.250;2023-03-14T21:30:05;4.20;99.90
10010;DHT22;5044;48.652;9.250;2023-03-14T21:32:32;4.00;99.90
10010;DHT22;5044;48.652;9.250;2023-03-14T21:34:59;4.50;99.90
10010;DHT22;5044;48.652;9.250;2023-03-14T21:37:28;4.00;99.90
10010;DHT22;5044;48.652;9.250;2023-03-14T21:39:55;4.00;99.90
10010;DHT22;5044;48.652;9.250;2023-03-14T21:42:23;3.80;99.90
10010;DHT22;5044;48.652;9.250;2023-03-14T21:44:50;4.00;99.90
10010;DHT22;5044;48.652;9.250;2023-03-14T21:47:18;4.20;99.90
10010;DHT22;5044;48.652;9.250;2023-03-14T21:49:48;3.90;99.90
10010;DHT22;5044;48.652;9.250;2023-03-14T21:52:15;4.40;99.90
10010;DHT22;5044;48.652;9.250;2023-03-14T21:54:43;4.50;99.90
10010;DHT22;5044;48.652;9.250;2023-03-14T21:57:11;3.80;99.90
10010;DHT22;5044;48.652;9.250;2023-03-14T21:59:39;3.80;99.90
10010;DHT22;5044;48.652;9.250;2023-03-14T22:02:15;3.70;99.90
10010;DHT22;5044;48.652;9.250;2023-03-14T22:04:42;3.70;99.90
10010;DHT22;5044;48.652;9.250;2023-03-14T22:07:13;3.80;99.90
10010;DHT22;5044;48.652;9.250;2023-03-14T22:09:43;3.80;99.90
10010;DHT22;5044;48.652;9.250;2023-03-14T22:12:11;3.70;99.90
10010;DHT22;5044;48.652;9.250;2023-03-14T22:14:42;3.70;99.90